sensor_id;sensor_type;location;lat;lon;timestamp;temperature;humidity
3035;DHT22;1527;48.836;9.172;2022-07-23T00:00:07;27.00;99.90
3035;DHT22;1527;48.836;9.172;2022-07-23T00:02:38;27.00;99.90
3035;DHT22;1527;48.836;9.172;2022-07-23T00:05:08;26.90;99.90
3035;DHT22;1527;48.836;9.172;2022-07-23T00:07:38;26.90;99.90
3035;DHT22;1527;48.836;9.172;2022-07-23T00:10:08;26.90;99.90
3035;DHT22;1527;48.836;9.172;2022-07-23T00:12:38;26.80;99.90
3035;DHT22;1527;48.836;9.172;2022-07-23T00:15:19;26.80;99.90
3035;DHT22;1527;48.836;9.172;2022-07-23T00:17:50;26.80;99.90
3035;DHT22;1527;48.836;9.172;2022-07-23T00:20:19;26.70;99.90
3035;DHT22;1527;48.836;9.172;2022-07-23T00:22:49;26.70;99.90
3035;DHT22;1527;48.836;9.172;2022-07-23T00:25:19;26.70;99.90
3035;DHT22;1527;48.836;9.172;2022-07-23T00:27:56;26.70;99.90
3035;DHT22;1527;48.836;9.172;2022-07-23T00:30:28;26.70;99.90
3035;DHT22;1527;48.836;9.172;2022-07-23T00:32:59;26.70;99.90
3035;DHT22;1527;48.836;9.172;2022-07-23T00:35:32;26.60;99.90
3035;DHT22;1527;48.836;9.172;2022-07-23T00:38:04;26.60;99.90
3035;DHT22;1527;48.836;9.172;2022-07-23T00:40:34;26.70;99.90
3035;DHT22;1527;48.836;9.172;2022-07-23T00:43:04;26.60;99.90
3035;DHT22;1527;48.836;9.172;2022-07-23T00:45:35;26.60;99.90
3035;DHT22;1527;48.836;9.172;2022-07-23T00:48:05;26.60;99.90
3035;DHT22;1527;48.836;9.172;2022-07-23T00:50:34;26.60;99.90
3035;DHT22;1527;48.836;9.172;2022-07-23T00:53:04;26.50;99.90
3035;DHT22;1527;48.836;9.172;2022-07-23T00:55:34;26.50;99.90
3035;DHT22;1527;48.836;9.172;2022-07-23T00:58:04;26.50;99.90
3035;DHT22;1527;48.836;9.172;2022-07-23T01:00:35;26.50;99.90
3035;DHT22;1527;48.836;9.172;2022-07-23T01:03:04;26.40;99.90
3035;DHT22;1527;48.836;9.172;2022-07-23T01:05:33;26.30;99.90
3035;DHT22;1527;48.836;9.172;2022-07-23T01:08:03;26.40;99.90
3035;DHT22;1527;48.836;9.172;2022-07-23T01:10:33;26.40;99.90
3035;DHT22;1527;48.836;9.172;2022-07-23T01:13:05;26.30;99.90
3035;DHT22;1527;48.836;9.172;2022-07-23T01:15:38;26.40;99.90
3035;DHT22;1527;48.836;9.172;2022-07-23T01:18:11;26.30;99.90
3035;DHT22;1527;48.836;9.172;2022-07-23T01:20:53;26.30;99.90
3035;DHT22;1527;48.836;9.172;2022-07-23T01:23:24;26.40;99.90
3035;DHT22;1527;48.836;9.172;2022-07-23T01:25:57;26.40;99.90
3035;DHT22;1527;48.836;9.172;2022-07-23T01:28:27;26.40;99.90
3035;DHT22;1527;48.836;9.172;2022-07-23T01:30:58;26.30;99.90
3035;DHT22;1527;48.836;9.172;2022-07-23T01:33:32;26.30;99.90
3035;DHT22;1527;48.836;9.172;2022-07-23T01:36:02;26.20;99.90
3035;DHT22;1527;48.836;9.172;2022-07-23T01:38:32;26.30;99.90
3035;DHT22;1527;48.836;9.172;2022-07-23T01:41:01;26.30;99.90
3035;DHT22;1527;48.836;9.172;2022-07-23T01:43:32;26.30;99.90
3035;DHT22;1527;48.836;9.172;2022-07-23T01:46:02;26.30;99.90
3035;DHT22;1527;48.836;9.172;2022-07-23T01:48:38;26.30;99.90
3035;DHT22;1527;48.836;9.172;2022-07-23T01:51:28;26.40;99.90
3035;DHT22;1527;48.836;9.172;2022-07-23T01:54:05;26.30;99.90
3035;DHT22;1527;48.836;9.172;2022-07-23T01:56:35;26.30;99.90
3035;DHT22;1527;48.836;9.172;2022-07-23T01:59:04;26.30;99.90
3035;DHT22;1527;48.836;9.172;2022-07-23T02:01:33;26.30;99.90
3035;DHT22;1527;48.836;9.172;2022-07-23T02:04:03;26.40;99.90
3035;DHT22;1527;48.836;9.172;2022-07-23T02:06:32;26.40;99.90
3035;DHT22;1527;48.836;9.172;2022-07-23T02:09:02;26.30;99.90
3035;DHT22;1527;48.836;9.172;2022-07-23T02:11:33;26.20;99.90
3035;DHT22;1527;48.836;9.172;2022-07-23T02:14:02;26.10;99.90
3035;DHT22;1527;48.836;9.172;2022-07-23T02:16:31;26.00;99.90
3035;DHT22;1527;48.836;9.172;2022-07-23T02:19:02;25.90;99.90
3035;DHT22;1527;48.836;9.172;2022-07-23T02:21:31;25.80;99.90
3035;DHT22;1527;48.836;9.172;2022-07-23T02:24:01;25.80;99.90
3035;DHT22;1527;48.836;9.172;2022-07-23T02:26:30;25.80;99.90
3035;DHT22;1527;48.836;9.172;2022-07-23T02:29:06;25.80;99.90
3035;DHT22;1527;48.836;9.172;2022-07-23T02:31:35;25.90;99.90
3035;DHT22;1527;48.836;9.172;2022-07-23T02:34:06;26.00;99.90
3035;DHT22;1527;48.836;9.172;2022-07-23T02:36:39;26.00;99.90
3035;DHT22;1527;48.836;9.172;2022-07-23T02:39:10;26.00;99.90
3035;DHT22;1527;48.836;9.172;2022-07-23T02:41:39;26.00;99.90
3035;DHT22;1527;48.836;9.172;2022-07-23T02:44:10;26.00;99.90
3035;DHT22;1527;48.836;9.172;2022-07-23T02:46:41;25.90;99.90
3035;DHT22;1527;48.836;9.172;2022-07-23T02:49:11;25.80;99.90
3035;DHT22;1527;48.836;9.172;2022-07-23T02:51:40;25.90;99.90
3035;DHT22;1527;48.836;9.172;2022-07-23T02:54:12;25.90;99.90
3035;DHT22;1527;48.836;9.172;2022-07-23T02:56:41;25.90;99.90
3035;DHT22;1527;48.836;9.172;2022-07-23T02:59:13;25.90;99.90
3035;DHT22;1527;48.836;9.172;2022-07-23T03:01:42;25.90;99.90
3035;DHT22;1527;48.836;9.172;2022-07-23T03:04:12;25.90;99.90
3035;DHT22;1527;48.836;9.172;2022-07-23T03:06:43;25.90;99.90
3035;DHT22;1527;48.836;9.172;2022-07-23T03:09:12;25.80;99.90
3035;DHT22;1527;48.836;9.172;2022-07-23T03:11:42;25.80;99.90
3035;DHT22;1527;48.836;9.172;2022-07-23T03:14:12;25.80;99.90
3035;DHT22;1527;48.836;9.172;2022-07-23T03:16:43;25.80;99.90
3035;DHT22;1527;48.836;9.172;2022-07-23T03:19:13;25.80;99.90
3035;DHT22;1527;48.836;9.172;2022-07-23T03:21:42;25.80;99.90
3035;DHT22;1527;48.836;9.172;2022-07-23T03:24:12;25.80;99.90
3035;DHT22;1527;48.836;9.172;2022-07-23T03:26:41;25.80;99.90
3035;DHT22;1527;48.836;9.172;2022-07-23T03:29:12;25.70;99.90
3035;DHT22;1527;48.836;9.172;2022-07-23T03:31:43;25.60;99.90
3035;DHT22;1527;48.836;9.172;2022-07-23T03:34:12;25.50;99.90
3035;DHT22;1527;48.836;9.172;2022-07-23T03:36:41;25.40;99.90
3035;DHT22;1527;48.836;9.172;2022-07-23T03:39:10;25.40;99.90
3035;DHT22;1527;48.836;9.172;2022-07-23T03:41:41;25.40;99.90
3035;DHT22;1527;48.836;9.172;2022-07-23T03:44:12;25.40;99.90
3035;DHT22;1527;48.836;9.172;2022-07-23T03:46:42;25.40;99.90
3035;DHT22;1527;48.836;9.172;2022-07-23T03:49:11;25.40;99.90
3035;DHT22;1527;48.836;9.172;2022-07-23T03:51:41;25.40;99.90
3035;DHT22;1527;48.836;9.172;2022-07-23T03:54:10;25.40;99.90
3035;DHT22;1527;48.836;9.172;2022-07-23T03:56:39;25.40;99.90
3035;DHT22;1527;48.836;9.172;2022-07-23T03:59:08;25.30;99.90
3035;DHT22;1527;48.836;9.172;2022-07-23T04:01:39;25.30;99.90
3035;DHT22;1527;48.836;9.172;2022-07-23T04:04:09;25.40;99.90
3035;DHT22;1527;48.836;9.172;2022-07-23T04:06:40;25.40;99.90
3035;DHT22;1527;48.836;9.172;2022-07-23T04:09:09;25.40;99.90
3035;DHT22;1527;48.836;9.172;2022-07-23T04:11:39;25.40;99.90
3035;DHT22;1527;48.836;9.172;2022-07-23T04:14:08;25.40;99.90
3035;DHT22;1527;48.836;9.172;2022-07-23T04:16:39;25.40;99.90
3035;DHT22;1527;48.836;9.172;2022-07-23T04:19:08;25.40;99.90
3035;DHT22;1527;48.836;9.172;2022-07-23T04:21:50;25.30;99.90
3035;DHT22;1527;48.836;9.172;2022-07-23T04:24:20;25.30;99.90
3035;DHT22;1527;48.836;9.172;2022-07-23T04:26:49;25.40;99.90
3035;DHT22;1527;48.836;9.172;2022-07-23T04:29:18;25.40;99.90
3035;DHT22;1527;48.836;9.172;2022-07-23T04:31:49;25.40;99.90
3035;DHT22;1527;48.836;9.172;2022-07-23T04:34:18;25.40;99.90
3035;DHT22;1527;48.836;9.172;2022-07-23T04:36:49;25.40;99.90
3035;DHT22;1527;48.836;9.172;2022-07-23T04:39:18;25.40;99.90
3035;DHT22;1527;48.836;9.172;2022-07-23T04:41:47;25.50;99.90
3035;DHT22;1527;48.836;9.172;2022-07-23T04:44:16;25.50;99.90
3035;DHT22;1527;48.836;9.172;2022-07-23T04:46:48;25.40;99.90
3035;DHT22;1527;48.836;9.172;2022-07-23T04:49:19;25.40;99.90
3035;DHT22;1527;48.836;9.172;2022-07-23T04:51:48;25.40;99.90
3035;DHT22;1527;48.836;9.172;2022-07-23T04:54:18;25.40;99.90
3035;DHT22;1527;48.836;9.172;2022-07-23T04:56:47;25.40;99.90
3035;DHT22;1527;48.836;9.172;2022-07-23T04:59:17;25.40;99.90
3035;DHT22;1527;48.836;9.172;2022-07-23T05:01:51;25.60;99.90
3035;DHT22;1527;48.836;9.172;2022-07-23T05:04:20;25.60;99.90
3035;DHT22;1527;48.836;9.172;2022-07-23T05:06:50;25.60;99.90
3035;DHT22;1527;48.836;9.172;2022-07-23T05:09:19;25.70;99.90
3035;DHT22;1527;48.836;9.172;2022-07-23T05:11:48;25.70;99.90
3035;DHT22;1527;48.836;9.172;2022-07-23T05:14:18;25.70;99.90
3035;DHT22;1527;48.836;9.172;2022-07-23T05:16:47;25.80;99.90
3035;DHT22;1527;48.836;9.172;2022-07-23T05:19:23;25.90;99.90
3035;DHT22;1527;48.836;9.172;2022-07-23T05:21:53;26.10;99.90
3035;DHT22;1527;48.836;9.172;2022-07-23T05:24:22;26.30;99.90
3035;DHT22;1527;48.836;9.172;2022-07-23T05:26:52;26.70;99.90
3035;DHT22;1527;48.836;9.172;2022-07-23T05:29:22;27.00;99.90
3035;DHT22;1527;48.836;9.172;2022-07-23T05:31:52;27.40;99.90
3035;DHT22;1527;48.836;9.172;2022-07-23T05:34:23;27.40;99.90
3035;DHT22;1527;48.836;9.172;2022-07-23T05:36:53;27.40;99.90
3035;DHT22;1527;48.836;9.172;2022-07-23T05:39:22;27.50;99.90
3035;DHT22;1527;48.836;9.172;2022-07-23T05:41:51;27.60;99.90
3035;DHT22;1527;48.836;9.172;2022-07-23T05:44:20;27.60;99.90
3035;DHT22;1527;48.836;9.172;2022-07-23T05:46:50;27.70;99.90
3035;DHT22;1527;48.836;9.172;2022-07-23T05:49:21;27.70;99.90
3035;DHT22;1527;48.836;9.172;2022-07-23T05:52:11;27.70;99.90
3035;DHT22;1527;48.836;9.172;2022-07-23T05:54:57;27.70;99.90
3035;DHT22;1527;48.836;9.172;2022-07-23T05:57:26;27.70;99.90
3035;DHT22;1527;48.836;9.172;2022-07-23T05:59:55;27.60;99.90
3035;DHT22;1527;48.836;9.172;2022-07-23T06:02:26;27.40;99.90
3035;DHT22;1527;48.836;9.172;2022-07-23T06:04:57;27.10;99.90
3035;DHT22;1527;48.836;9.172;2022-07-23T06:07:30;26.90;99.90
3035;DHT22;1527;48.836;9.172;2022-07-23T06:09:59;26.40;99.90
3035;DHT22;1527;48.836;9.172;2022-07-23T06:12:29;26.00;99.90
3035;DHT22;1527;48.836;9.172;2022-07-23T06:14:58;25.90;99.90
3035;DHT22;1527;48.836;9.172;2022-07-23T06:17:28;26.00;99.90
3035;DHT22;1527;48.836;9.172;2022-07-23T06:19:59;25.80;99.90
3035;DHT22;1527;48.836;9.172;2022-07-23T06:22:28;25.70;99.90
3035;DHT22;1527;48.836;9.172;2022-07-23T06:24:58;25.60;99.90
3035;DHT22;1527;48.836;9.172;2022-07-23T06:27:27;25.60;99.90
3035;DHT22;1527;48.836;9.172;2022-07-23T06:29:56;25.50;99.90
3035;DHT22;1527;48.836;9.172;2022-07-23T06:32:25;25.80;99.90
3035;DHT22;1527;48.836;9.172;2022-07-23T06:34:54;25.80;99.90
3035;DHT22;1527;48.836;9.172;2022-07-23T06:37:25;25.90;99.90
3035;DHT22;1527;48.836;9.172;2022-07-23T06:39:54;26.00;99.90
3035;DHT22;1527;48.836;9.172;2022-07-23T06:42:24;26.10;99.90
3035;DHT22;1527;48.836;9.172;2022-07-23T06:44:58;26.00;99.90
3035;DHT22;1527;48.836;9.172;2022-07-23T06:47:28;25.80;99.90
3035;DHT22;1527;48.836;9.172;2022-07-23T06:49:58;25.70;99.90
3035;DHT22;1527;48.836;9.172;2022-07-23T06:52:29;25.60;99.90
3035;DHT22;1527;48.836;9.172;2022-07-23T06:54:59;25.60;99.90
3035;DHT22;1527;48.836;9.172;2022-07-23T06:57:28;25.40;99.90
3035;DHT22;1527;48.836;9.172;2022-07-23T07:00:01;25.30;99.90
3035;DHT22;1527;48.836;9.172;2022-07-23T07:02:31;25.20;99.90
3035;DHT22;1527;48.836;9.172;2022-07-23T07:05:00;25.10;99.90
3035;DHT22;1527;48.836;9.172;2022-07-23T07:07:34;25.00;99.90
3035;DHT22;1527;48.836;9.172;2022-07-23T07:10:04;24.80;99.90
3035;DHT22;1527;48.836;9.172;2022-07-23T07:12:42;24.70;99.90
3035;DHT22;1527;48.836;9.172;2022-07-23T07:15:11;24.80;99.90
3035;DHT22;1527;48.836;9.172;2022-07-23T07:17:40;24.40;99.90
3035;DHT22;1527;48.836;9.172;2022-07-23T07:20:11;24.40;99.90
3035;DHT22;1527;48.836;9.172;2022-07-23T07:22:41;24.20;99.90
3035;DHT22;1527;48.836;9.172;2022-07-23T07:25:10;24.10;99.90
3035;DHT22;1527;48.836;9.172;2022-07-23T07:27:39;24.10;99.90
3035;DHT22;1527;48.836;9.172;2022-07-23T07:30:11;24.00;99.90
3035;DHT22;1527;48.836;9.172;2022-07-23T07:32:42;23.90;99.90
3035;DHT22;1527;48.836;9.172;2022-07-23T07:35:27;23.70;99.90
3035;DHT22;1527;48.836;9.172;2022-07-23T07:38:00;23.60;99.90
3035;DHT22;1527;48.836;9.172;2022-07-23T07:40:29;23.60;99.90
3035;DHT22;1527;48.836;9.172;2022-07-23T07:43:01;23.70;99.90
3035;DHT22;1527;48.836;9.172;2022-07-23T07:45:32;23.70;99.90
3035;DHT22;1527;48.836;9.172;2022-07-23T07:48:01;23.80;99.90
3035;DHT22;1527;48.836;9.172;2022-07-23T07:50:34;24.00;99.90
3035;DHT22;1527;48.836;9.172;2022-07-23T07:53:04;24.20;99.90
3035;DHT22;1527;48.836;9.172;2022-07-23T07:55:34;24.40;99.90
3035;DHT22;1527;48.836;9.172;2022-07-23T07:58:04;24.50;99.90
3035;DHT22;1527;48.836;9.172;2022-07-23T08:00:37;24.30;99.90
3035;DHT22;1527;48.836;9.172;2022-07-23T08:03:06;24.40;99.90
3035;DHT22;1527;48.836;9.172;2022-07-23T08:05:36;24.60;99.90
3035;DHT22;1527;48.836;9.172;2022-07-23T08:08:06;24.40;99.90
3035;DHT22;1527;48.836;9.172;2022-07-23T08:10:37;24.50;99.90
3035;DHT22;1527;48.836;9.172;2022-07-23T08:13:06;24.50;99.90
3035;DHT22;1527;48.836;9.172;2022-07-23T08:15:35;24.50;99.90
3035;DHT22;1527;48.836;9.172;2022-07-23T08:18:05;24.60;99.90
3035;DHT22;1527;48.836;9.172;2022-07-23T08:20:34;24.70;99.90
3035;DHT22;1527;48.836;9.172;2022-07-23T08:23:07;24.80;99.90
3035;DHT22;1527;48.836;9.172;2022-07-23T08:25:39;24.90;99.90
3035;DHT22;1527;48.836;9.172;2022-07-23T08:28:11;25.00;99.90
3035;DHT22;1527;48.836;9.172;2022-07-23T08:30:42;25.00;99.90
3035;DHT22;1527;48.836;9.172;2022-07-23T08:33:13;25.00;99.90
3035;DHT22;1527;48.836;9.172;2022-07-23T08:36:00;25.00;99.90
3035;DHT22;1527;48.836;9.172;2022-07-23T08:38:34;25.10;99.90
3035;DHT22;1527;48.836;9.172;2022-07-23T08:41:03;25.10;99.90
3035;DHT22;1527;48.836;9.172;2022-07-23T08:43:34;25.20;99.90
3035;DHT22;1527;48.836;9.172;2022-07-23T08:46:04;25.30;99.90
3035;DHT22;1527;48.836;9.172;2022-07-23T08:48:35;25.50;99.90
3035;DHT22;1527;48.836;9.172;2022-07-23T08:51:08;25.70;99.90
3035;DHT22;1527;48.836;9.172;2022-07-23T08:53:41;25.90;99.90
3035;DHT22;1527;48.836;9.172;2022-07-23T08:56:13;26.10;99.90
3035;DHT22;1527;48.836;9.172;2022-07-23T08:58:42;26.30;99.90
3035;DHT22;1527;48.836;9.172;2022-07-23T09:01:14;26.40;99.90
3035;DHT22;1527;48.836;9.172;2022-07-23T09:03:43;26.50;99.90
3035;DHT22;1527;48.836;9.172;2022-07-23T09:06:14;26.50;99.90
3035;DHT22;1527;48.836;9.172;2022-07-23T09:08:45;26.70;99.90
3035;DHT22;1527;48.836;9.172;2022-07-23T09:11:16;26.90;99.90
3035;DHT22;1527;48.836;9.172;2022-07-23T09:13:49;27.20;99.90
3035;DHT22;1527;48.836;9.172;2022-07-23T09:16:25;27.30;99.90
3035;DHT22;1527;48.836;9.172;2022-07-23T09:18:57;27.40;99.90
3035;DHT22;1527;48.836;9.172;2022-07-23T09:21:28;27.40;99.90
3035;DHT22;1527;48.836;9.172;2022-07-23T09:24:00;27.10;99.90
3035;DHT22;1527;48.836;9.172;2022-07-23T09:26:34;27.20;99.90
3035;DHT22;1527;48.836;9.172;2022-07-23T09:29:09;27.30;99.90
3035;DHT22;1527;48.836;9.172;2022-07-23T09:31:51;27.50;99.90
3035;DHT22;1527;48.836;9.172;2022-07-23T09:34:21;27.60;99.90
3035;DHT22;1527;48.836;9.172;2022-07-23T09:36:53;27.60;99.90
3035;DHT22;1527;48.836;9.172;2022-07-23T09:39:30;27.60;99.90
3035;DHT22;1527;48.836;9.172;2022-07-23T09:42:16;27.70;99.90
3035;DHT22;1527;48.836;9.172;2022-07-23T09:44:47;27.80;99.90
3035;DHT22;1527;48.836;9.172;2022-07-23T09:47:17;27.90;99.90
3035;DHT22;1527;48.836;9.172;2022-07-23T09:49:58;27.90;99.90
3035;DHT22;1527;48.836;9.172;2022-07-23T09:52:30;28.10;99.90
3035;DHT22;1527;48.836;9.172;2022-07-23T09:55:05;28.10;99.90
3035;DHT22;1527;48.836;9.172;2022-07-23T09:57:35;28.20;99.90
3035;DHT22;1527;48.836;9.172;2022-07-23T10:00:08;28.10;99.90
3035;DHT22;1527;48.836;9.172;2022-07-23T10:02:40;28.20;99.90
3035;DHT22;1527;48.836;9.172;2022-07-23T10:05:30;28.10;99.90
3035;DHT22;1527;48.836;9.172;2022-07-23T10:08:03;28.20;99.90
3035;DHT22;1527;48.836;9.172;2022-07-23T10:10:53;28.20;99.90
3035;DHT22;1527;48.836;9.172;2022-07-23T10:13:48;28.40;99.90
3035;DHT22;1527;48.836;9.172;2022-07-23T10:16:32;28.50;99.90
3035;DHT22;1527;48.836;9.172;2022-07-23T10:19:05;28.50;99.90
3035;DHT22;1527;48.836;9.172;2022-07-23T10:21:40;28.50;99.90
3035;DHT22;1527;48.836;9.172;2022-07-23T10:24:28;28.50;99.90
3035;DHT22;1527;48.836;9.172;2022-07-23T10:27:20;28.60;99.90
3035;DHT22;1527;48.836;9.172;2022-07-23T10:30:15;28.70;99.90
3035;DHT22;1527;48.836;9.172;2022-07-23T10:32:56;28.80;99.90
3035;DHT22;1527;48.836;9.172;2022-07-23T10:35:37;28.90;99.90
3035;DHT22;1527;48.836;9.172;2022-07-23T10:38:15;29.10;99.90
3035;DHT22;1527;48.836;9.172;2022-07-23T10:41:01;29.20;99.90
3035;DHT22;1527;48.836;9.172;2022-07-23T10:43:33;29.40;99.90
3035;DHT22;1527;48.836;9.172;2022-07-23T10:46:23;29.40;99.90
3035;DHT22;1527;48.836;9.172;2022-07-23T10:49:24;29.20;99.90
3035;DHT22;1527;48.836;9.172;2022-07-23T10:52:20;29.10;99.90
3035;DHT22;1527;48.836;9.172;2022-07-23T10:54:56;29.00;99.90
3035;DHT22;1527;48.836;9.172;2022-07-23T10:58:05;29.00;99.90
3035;DHT22;1527;48.836;9.172;2022-07-23T11:00:37;28.90;99.90
3035;DHT22;1527;48.836;9.172;2022-07-23T11:03:28;28.90;99.90
3035;DHT22;1527;48.836;9.172;2022-07-23T11:06:07;28.80;99.90
3035;DHT22;1527;48.836;9.172;2022-07-23T11:08:36;28.80;99.90
3035;DHT22;1527;48.836;9.172;2022-07-23T11:11:10;28.80;99.90
3035;DHT22;1527;48.836;9.172;2022-07-23T11:13:48;29.00;99.90
3035;DHT22;1527;48.836;9.172;2022-07-23T11:16:23;28.90;99.90
3035;DHT22;1527;48.836;9.172;2022-07-23T11:18:58;28.90;99.90
3035;DHT22;1527;48.836;9.172;2022-07-23T11:21:48;29.00;99.90
3035;DHT22;1527;48.836;9.172;2022-07-23T11:24:20;29.00;99.90
3035;DHT22;1527;48.836;9.172;2022-07-23T11:27:03;28.90;99.90
3035;DHT22;1527;48.836;9.172;2022-07-23T11:29:49;28.90;99.90
3035;DHT22;1527;48.836;9.172;2022-07-23T11:32:31;28.90;99.90
3035;DHT22;1527;48.836;9.172;2022-07-23T11:35:27;28.70;99.90
3035;DHT22;1527;48.836;9.172;2022-07-23T11:38:06;28.70;99.90
3035;DHT22;1527;48.836;9.172;2022-07-23T11:40:37;28.80;99.90
3035;DHT22;1527;48.836;9.172;2022-07-23T11:43:08;28.70;99.90
3035;DHT22;1527;48.836;9.172;2022-07-23T11:45:39;28.80;99.90
3035;DHT22;1527;48.836;9.172;2022-07-23T11:48:17;28.60;99.90
3035;DHT22;1527;48.836;9.172;2022-07-23T11:50:47;28.80;99.90
3035;DHT22;1527;48.836;9.172;2022-07-23T11:53:25;28.90;99.90
3035;DHT22;1527;48.836;9.172;2022-07-23T11:56:04;28.90;99.90
3035;DHT22;1527;48.836;9.172;2022-07-23T11:58:36;29.10;99.90
3035;DHT22;1527;48.836;9.172;2022-07-23T12:01:08;29.40;99.90
3035;DHT22;1527;48.836;9.172;2022-07-23T12:03:50;29.60;99.90
3035;DHT22;1527;48.836;9.172;2022-07-23T12:06:26;29.60;99.90
3035;DHT22;1527;48.836;9.172;2022-07-23T12:08:55;29.40;99.90
3035;DHT22;1527;48.836;9.172;2022-07-23T12:11:25;29.50;99.90
3035;DHT22;1527;48.836;9.172;2022-07-23T12:13:56;29.40;99.90
3035;DHT22;1527;48.836;9.172;2022-07-23T12:16:26;29.50;99.90
3035;DHT22;1527;48.836;9.172;2022-07-23T12:18:57;29.40;99.90
3035;DHT22;1527;48.836;9.172;2022-07-23T12:21:26;29.50;99.90
3035;DHT22;1527;48.836;9.172;2022-07-23T12:24:06;29.50;99.90
3035;DHT22;1527;48.836;9.172;2022-07-23T12:26:35;29.40;99.90
3035;DHT22;1527;48.836;9.172;2022-07-23T12:29:05;29.50;99.90
3035;DHT22;1527;48.836;9.172;2022-07-23T12:31:34;29.50;99.90
3035;DHT22;1527;48.836;9.172;2022-07-23T12:34:15;29.60;99.90
3035;DHT22;1527;48.836;9.172;2022-07-23T12:36:44;29.50;99.90
3035;DHT22;1527;48.836;9.172;2022-07-23T12:39:29;29.60;99.90
3035;DHT22;1527;48.836;9.172;2022-07-23T12:41:59;29.60;99.90
3035;DHT22;1527;48.836;9.172;2022-07-23T12:44:28;29.70;99.90
3035;DHT22;1527;48.836;9.172;2022-07-23T12:47:04;29.80;99.90
3035;DHT22;1527;48.836;9.172;2022-07-23T12:49:36;29.50;99.90
3035;DHT22;1527;48.836;9.172;2022-07-23T12:52:15;29.50;99.90
3035;DHT22;1527;48.836;9.172;2022-07-23T12:54:46;29.50;99.90
3035;DHT22;1527;48.836;9.172;2022-07-23T12:57:16;29.70;99.90
3035;DHT22;1527;48.836;9.172;2022-07-23T12:59:46;29.60;99.90
3035;DHT22;1527;48.836;9.172;2022-07-23T13:02:15;29.60;99.90
3035;DHT22;1527;48.836;9.172;2022-07-23T13:04:49;29.70;99.90
3035;DHT22;1527;48.836;9.172;2022-07-23T13:07:19;29.50;99.90
3035;DHT22;1527;48.836;9.172;2022-07-23T13:09:50;29.40;99.90
3035;DHT22;1527;48.836;9.172;2022-07-23T13:12:19;29.30;99.90
3035;DHT22;1527;48.836;9.172;2022-07-23T13:14:49;29.50;99.90
3035;DHT22;1527;48.836;9.172;2022-07-23T13:17:18;29.70;99.90
3035;DHT22;1527;48.836;9.172;2022-07-23T13:19:50;29.70;99.90
3035;DHT22;1527;48.836;9.172;2022-07-23T13:22:20;29.50;99.90
3035;DHT22;1527;48.836;9.172;2022-07-23T13:24:49;29.50;99.90
3035;DHT22;1527;48.836;9.172;2022-07-23T13:27:19;29.50;99.90
3035;DHT22;1527;48.836;9.172;2022-07-23T13:29:48;29.40;99.90
3035;DHT22;1527;48.836;9.172;2022-07-23T13:32:20;29.40;99.90
3035;DHT22;1527;48.836;9.172;2022-07-23T13:34:51;29.40;99.90
3035;DHT22;1527;48.836;9.172;2022-07-23T13:37:21;29.30;99.90
3035;DHT22;1527;48.836;9.172;2022-07-23T13:39:52;29.30;99.90
3035;DHT22;1527;48.836;9.172;2022-07-23T13:42:21;29.30;99.90
3035;DHT22;1527;48.836;9.172;2022-07-23T13:44:50;29.20;99.90
3035;DHT22;1527;48.836;9.172;2022-07-23T13:47:20;29.00;99.90
3035;DHT22;1527;48.836;9.172;2022-07-23T13:49:53;29.20;99.90
3035;DHT22;1527;48.836;9.172;2022-07-23T13:52:22;29.30;99.90
3035;DHT22;1527;48.836;9.172;2022-07-23T13:54:51;29.40;99.90
3035;DHT22;1527;48.836;9.172;2022-07-23T13:57:21;29.50;99.90
3035;DHT22;1527;48.836;9.172;2022-07-23T13:59:51;29.70;99.90
3035;DHT22;1527;48.836;9.172;2022-07-23T14:02:20;29.80;99.90
3035;DHT22;1527;48.836;9.172;2022-07-23T14:04:53;29.80;99.90
3035;DHT22;1527;48.836;9.172;2022-07-23T14:07:22;29.80;99.90
3035;DHT22;1527;48.836;9.172;2022-07-23T14:09:52;29.90;99.90
3035;DHT22;1527;48.836;9.172;2022-07-23T14:12:22;29.90;99.90
3035;DHT22;1527;48.836;9.172;2022-07-23T14:14:54;29.80;99.90
3035;DHT22;1527;48.836;9.172;2022-07-23T14:17:25;30.00;99.90
3035;DHT22;1527;48.836;9.172;2022-07-23T14:19:56;30.20;99.90
3035;DHT22;1527;48.836;9.172;2022-07-23T14:22:26;29.90;99.90
3035;DHT22;1527;48.836;9.172;2022-07-23T14:24:56;29.80;99.90
3035;DHT22;1527;48.836;9.172;2022-07-23T14:27:28;29.70;99.90
3035;DHT22;1527;48.836;9.172;2022-07-23T14:30:00;29.70;99.90
3035;DHT22;1527;48.836;9.172;2022-07-23T14:32:31;29.70;99.90
3035;DHT22;1527;48.836;9.172;2022-07-23T14:35:05;29.80;99.90
3035;DHT22;1527;48.836;9.172;2022-07-23T14:37:39;29.90;99.90
3035;DHT22;1527;48.836;9.172;2022-07-23T14:40:10;30.00;99.90
3035;DHT22;1527;48.836;9.172;2022-07-23T14:42:39;30.10;99.90
3035;DHT22;1527;48.836;9.172;2022-07-23T14:45:10;30.10;99.90
3035;DHT22;1527;48.836;9.172;2022-07-23T14:47:39;30.10;99.90
3035;DHT22;1527;48.836;9.172;2022-07-23T14:50:15;30.00;99.90
3035;DHT22;1527;48.836;9.172;2022-07-23T14:52:44;30.00;99.90
3035;DHT22;1527;48.836;9.172;2022-07-23T14:55:16;29.90;99.90
3035;DHT22;1527;48.836;9.172;2022-07-23T14:57:46;29.90;99.90
3035;DHT22;1527;48.836;9.172;2022-07-23T15:00:16;29.80;99.90
3035;DHT22;1527;48.836;9.172;2022-07-23T15:02:50;29.80;99.90
3035;DHT22;1527;48.836;9.172;2022-07-23T15:05:23;29.80;99.90
3035;DHT22;1527;48.836;9.172;2022-07-23T15:07:53;29.60;99.90
3035;DHT22;1527;48.836;9.172;2022-07-23T15:10:22;29.70;99.90
3035;DHT22;1527;48.836;9.172;2022-07-23T15:12:52;29.70;99.90
3035;DHT22;1527;48.836;9.172;2022-07-23T15:15:22;29.80;99.90
3035;DHT22;1527;48.836;9.172;2022-07-23T15:17:53;29.80;99.90
3035;DHT22;1527;48.836;9.172;2022-07-23T15:20:24;30.00;99.90
3035;DHT22;1527;48.836;9.172;2022-07-23T15:23:13;30.20;99.90
3035;DHT22;1527;48.836;9.172;2022-07-23T15:25:43;30.00;99.90
3035;DHT22;1527;48.836;9.172;2022-07-23T15:28:17;30.00;99.90
3035;DHT22;1527;48.836;9.172;2022-07-23T15:30:48;29.90;99.90
3035;DHT22;1527;48.836;9.172;2022-07-23T15:33:19;29.90;99.90
3035;DHT22;1527;48.836;9.172;2022-07-23T15:35:50;29.80;99.90
3035;DHT22;1527;48.836;9.172;2022-07-23T15:38:23;29.80;99.90
3035;DHT22;1527;48.836;9.172;2022-07-23T15:40:53;29.80;99.90
3035;DHT22;1527;48.836;9.172;2022-07-23T15:43:25;29.80;99.90
3035;DHT22;1527;48.836;9.172;2022-07-23T15:45:54;29.80;99.90
3035;DHT22;1527;48.836;9.172;2022-07-23T15:48:24;29.90;99.90
3035;DHT22;1527;48.836;9.172;2022-07-23T15:50:55;29.90;99.90
3035;DHT22;1527;48.836;9.172;2022-07-23T15:53:26;29.80;99.90
3035;DHT22;1527;48.836;9.172;2022-07-23T15:56:05;29.70;99.90
3035;DHT22;1527;48.836;9.172;2022-07-23T15:58:42;29.80;99.90
3035;DHT22;1527;48.836;9.172;2022-07-23T16:01:12;29.90;99.90
3035;DHT22;1527;48.836;9.172;2022-07-23T16:03:42;29.90;99.90
3035;DHT22;1527;48.836;9.172;2022-07-23T16:06:15;29.90;99.90
3035;DHT22;1527;48.836;9.172;2022-07-23T16:08:45;29.80;99.90
3035;DHT22;1527;48.836;9.172;2022-07-23T16:11:14;29.70;99.90
3035;DHT22;1527;48.836;9.172;2022-07-23T16:13:44;29.70;99.90
3035;DHT22;1527;48.836;9.172;2022-07-23T16:16:13;29.60;99.90
3035;DHT22;1527;48.836;9.172;2022-07-23T16:18:42;29.60;99.90
3035;DHT22;1527;48.836;9.172;2022-07-23T16:21:16;29.60;99.90
3035;DHT22;1527;48.836;9.172;2022-07-23T16:23:45;29.50;99.90
3035;DHT22;1527;48.836;9.172;2022-07-23T16:26:15;29.60;99.90
3035;DHT22;1527;48.836;9.172;2022-07-23T16:28:45;29.70;99.90
3035;DHT22;1527;48.836;9.172;2022-07-23T16:31:14;29.60;99.90
3035;DHT22;1527;48.836;9.172;2022-07-23T16:33:44;29.50;99.90